sensor_id;sensor_type;location;lat;lon;timestamp;P1;durP1;ratioP1;P2;durP2;ratioP2
55082;SDS011;40978;52.850;6.506;2024-01-07T00:01:35;3.47;;;2.28;;
55082;SDS011;40978;52.850;6.506;2024-01-07T00:04:01;5.97;;;1.98;;
55082;SDS011;40978;52.850;6.506;2024-01-07T00:06:27;0.88;;;0.88;;
55082;SDS011;40978;52.850;6.506;2024-01-07T00:08:53;2.15;;;1.23;;
55082;SDS011;40978;52.850;6.506;2024-01-07T00:11:18;3.83;;;1.75;;
55082;SDS011;40978;52.850;6.506;2024-01-07T00:13:48;4.25;;;2.92;;
55082;SDS011;40978;52.850;6.506;2024-01-07T00:16:13;2.08;;;1.73;;
55082;SDS011;40978;52.850;6.506;2024-01-07T00:18:39;2.50;;;2.15;;
55082;SDS011;40978;52.850;6.506;2024-01-07T00:21:05;5.20;;;1.70;;
55082;SDS011;40978;52.850;6.506;2024-01-07T00:23:30;1.50;;;1.40;;
55082;SDS011;40978;52.850;6.506;2024-01-07T00:25:56;2.75;;;1.27;;
55082;SDS011;40978;52.850;6.506;2024-01-07T00:28:22;1.48;;;1.38;;
55082;SDS011;40978;52.850;6.506;2024-01-07T00:30:47;1.10;;;0.95;;
55082;SDS011;40978;52.850;6.506;2024-01-07T00:33:13;4.03;;;1.58;;
55082;SDS011;40978;52.850;6.506;2024-01-07T00:35:39;2.00;;;1.77;;
55082;SDS011;40978;52.850;6.506;2024-01-07T00:38:05;1.38;;;1.25;;
55082;SDS011;40978;52.850;6.506;2024-01-07T00:40:30;2.97;;;2.55;;
55082;SDS011;40978;52.850;6.506;2024-01-07T00:42:56;4.65;;;1.95;;
55082;SDS011;40978;52.850;6.506;2024-01-07T00:45:22;2.28;;;1.27;;
55082;SDS011;40978;52.850;6.506;2024-01-07T00:47:48;11.40;;;2.03;;
55082;SDS011;40978;52.850;6.506;2024-01-07T00:50:13;2.80;;;2.38;;
55082;SDS011;40978;52.850;6.506;2024-01-07T00:52:40;4.20;;;1.80;;
55082;SDS011;40978;52.850;6.506;2024-01-07T00:55:08;2.92;;;2.15;;
55082;SDS011;40978;52.850;6.506;2024-01-07T00:57:34;3.45;;;1.42;;
55082;SDS011;40978;52.850;6.506;2024-01-07T01:00:00;1.98;;;1.80;;
55082;SDS011;40978;52.850;6.506;2024-01-07T01:02:25;3.42;;;1.95;;
55082;SDS011;40978;52.850;6.506;2024-01-07T01:04:51;1.58;;;1.38;;
55082;SDS011;40978;52.850;6.506;2024-01-07T01:07:17;5.65;;;1.95;;
55082;SDS011;40978;52.850;6.506;2024-01-07T01:09:42;2.60;;;1.95;;
55082;SDS011;40978;52.850;6.506;2024-01-07T01:12:08;1.65;;;1.23;;
55082;SDS011;40978;52.850;6.506;2024-01-07T01:14:34;1.98;;;1.52;;
55082;SDS011;40978;52.850;6.506;2024-01-07T01:16:59;1.67;;;1.55;;
55082;SDS011;40978;52.850;6.506;2024-01-07T01:19:25;2.13;;;1.42;;
55082;SDS011;40978;52.850;6.506;2024-01-07T01:21:51;6.93;;;1.45;;
55082;SDS011;40978;52.850;6.506;2024-01-07T01:24:17;1.50;;;1.10;;
55082;SDS011;40978;52.850;6.506;2024-01-07T01:26:43;3.35;;;1.95;;
55082;SDS011;40978;52.850;6.506;2024-01-07T01:29:08;1.65;;;1.15;;
55082;SDS011;40978;52.850;6.506;2024-01-07T01:31:34;1.42;;;1.33;;
55082;SDS011;40978;52.850;6.506;2024-01-07T01:34:00;0.98;;;0.93;;
55082;SDS011;40978;52.850;6.506;2024-01-07T01:36:26;2.25;;;1.48;;
55082;SDS011;40978;52.850;6.506;2024-01-07T01:38:51;3.00;;;1.92;;
55082;SDS011;40978;52.850;6.506;2024-01-07T01:41:17;6.25;;;2.78;;
55082;SDS011;40978;52.850;6.506;2024-01-07T01:43:43;2.65;;;2.28;;
55082;SDS011;40978;52.850;6.506;2024-01-07T01:46:08;1.10;;;1.00;;
55082;SDS011;40978;52.850;6.506;2024-01-07T01:48:37;1.60;;;1.42;;
55082;SDS011;40978;52.850;6.506;2024-01-07T01:51:04;2.25;;;1.95;;
55082;SDS011;40978;52.850;6.506;2024-01-07T01:53:29;3.22;;;2.15;;
55082;SDS011;40978;52.850;6.506;2024-01-07T01:55:57;1.25;;;0.88;;
55082;SDS011;40978;52.850;6.506;2024-01-07T01:58:25;2.67;;;1.75;;
55082;SDS011;40978;52.850;6.506;2024-01-07T02:00:51;1.83;;;1.20;;
55082;SDS011;40978;52.850;6.506;2024-01-07T02:03:17;2.83;;;1.52;;
55082;SDS011;40978;52.850;6.506;2024-01-07T02:05:43;2.65;;;1.83;;
55082;SDS011;40978;52.850;6.506;2024-01-07T02:08:09;1.52;;;1.00;;
55082;SDS011;40978;52.850;6.506;2024-01-07T02:10:36;7.03;;;2.03;;
55082;SDS011;40978;52.850;6.506;2024-01-07T02:13:02;2.17;;;0.75;;
55082;SDS011;40978;52.850;6.506;2024-01-07T02:15:29;2.40;;;1.98;;
55082;SDS011;40978;52.850;6.506;2024-01-07T02:17:55;3.38;;;2.20;;
55082;SDS011;40978;52.850;6.506;2024-01-07T02:20:21;2.30;;;1.15;;
55082;SDS011;40978;52.850;6.506;2024-01-07T02:22:47;1.67;;;1.38;;
55082;SDS011;40978;52.850;6.506;2024-01-07T02:25:12;3.55;;;2.13;;
55082;SDS011;40978;52.850;6.506;2024-01-07T02:27:38;3.80;;;2.20;;
55082;SDS011;40978;52.850;6.506;2024-01-07T02:30:04;1.38;;;1.05;;
55082;SDS011;40978;52.850;6.506;2024-01-07T02:32:30;2.58;;;1.25;;
55082;SDS011;40978;52.850;6.506;2024-01-07T02:35:01;1.38;;;1.00;;
55082;SDS011;40978;52.850;6.506;2024-01-07T02:37:27;1.23;;;0.85;;
55082;SDS011;40978;52.850;6.506;2024-01-07T02:39:52;3.30;;;1.27;;
55082;SDS011;40978;52.850;6.506;2024-01-07T02:42:18;3.42;;;1.80;;
55082;SDS011;40978;52.850;6.506;2024-01-07T02:44:44;2.03;;;1.38;;
55082;SDS011;40978;52.850;6.506;2024-01-07T02:47:09;3.45;;;1.92;;
55082;SDS011;40978;52.850;6.506;2024-01-07T02:49:35;2.50;;;1.52;;
55082;SDS011;40978;52.850;6.506;2024-01-07T02:52:01;1.73;;;1.45;;
55082;SDS011;40978;52.850;6.506;2024-01-07T02:54:27;2.17;;;1.42;;
55082;SDS011;40978;52.850;6.506;2024-01-07T02:56:53;0.63;;;0.63;;
55082;SDS011;40978;52.850;6.506;2024-01-07T02:59:19;2.20;;;2.00;;
55082;SDS011;40978;52.850;6.506;2024-01-07T03:01:45;1.02;;;0.95;;
55082;SDS011;40978;52.850;6.506;2024-01-07T03:04:12;5.35;;;2.00;;
55082;SDS011;40978;52.850;6.506;2024-01-07T03:06:38;1.13;;;0.90;;
55082;SDS011;40978;52.850;6.506;2024-01-07T03:09:04;1.20;;;1.10;;
55082;SDS011;40978;52.850;6.506;2024-01-07T03:11:30;0.60;;;0.60;;
55082;SDS011;40978;52.850;6.506;2024-01-07T03:13:56;2.30;;;1.70;;
55082;SDS011;40978;52.850;6.506;2024-01-07T03:16:22;3.08;;;0.57;;
55082;SDS011;40978;52.850;6.506;2024-01-07T03:18:48;3.03;;;2.22;;
55082;SDS011;40978;52.850;6.506;2024-01-07T03:21:18;2.33;;;1.33;;
55082;SDS011;40978;52.850;6.506;2024-01-07T03:23:44;2.30;;;1.30;;
55082;SDS011;40978;52.850;6.506;2024-01-07T03:26:10;2.92;;;1.92;;
55082;SDS011;40978;52.850;6.506;2024-01-07T03:28:36;1.25;;;1.05;;
55082;SDS011;40978;52.850;6.506;2024-01-07T03:31:07;1.98;;;1.88;;
55082;SDS011;40978;52.850;6.506;2024-01-07T03:33:40;1.13;;;0.95;;
55082;SDS011;40978;52.850;6.506;2024-01-07T03:36:10;1.40;;;0.77;;
55082;SDS011;40978;52.850;6.506;2024-01-07T03:38:38;0.80;;;0.70;;
55082;SDS011;40978;52.850;6.506;2024-01-07T03:41:04;4.28;;;1.00;;
55082;SDS011;40978;52.850;6.506;2024-01-07T03:43:30;1.00;;;0.47;;
55082;SDS011;40978;52.850;6.506;2024-01-07T03:45:56;2.83;;;1.30;;
55082;SDS011;40978;52.850;6.506;2024-01-07T03:48:21;0.90;;;0.85;;
55082;SDS011;40978;52.850;6.506;2024-01-07T03:50:47;1.38;;;1.13;;
55082;SDS011;40978;52.850;6.506;2024-01-07T03:53:13;1.38;;;0.88;;
55082;SDS011;40978;52.850;6.506;2024-01-07T03:55:39;1.17;;;0.85;;
55082;SDS011;40978;52.850;6.506;2024-01-07T03:58:05;0.73;;;0.70;;
55082;SDS011;40978;52.850;6.506;2024-01-07T04:00:31;0.85;;;0.85;;
55082;SDS011;40978;52.850;6.506;2024-01-07T04:02:57;5.15;;;0.80;;
55082;SDS011;40978;52.850;6.506;2024-01-07T04:05:23;2.15;;;1.33;;
55082;SDS011;40978;52.850;6.506;2024-01-07T04:07:49;1.80;;;1.48;;
55082;SDS011;40978;52.850;6.506;2024-01-07T04:10:16;1.60;;;0.80;;
55082;SDS011;40978;52.850;6.506;2024-01-07T04:12:42;1.60;;;1.13;;
55082;SDS011;40978;52.850;6.506;2024-01-07T04:15:08;3.33;;;1.48;;
55082;SDS011;40978;52.850;6.506;2024-01-07T04:17:34;1.55;;;1.20;;
55082;SDS011;40978;52.850;6.506;2024-01-07T04:19:59;0.70;;;0.70;;
55082;SDS011;40978;52.850;6.506;2024-01-07T04:22:25;1.58;;;0.70;;
55082;SDS011;40978;52.850;6.506;2024-01-07T04:24:51;1.55;;;1.15;;
55082;SDS011;40978;52.850;6.506;2024-01-07T04:27:17;0.82;;;0.68;;
55082;SDS011;40978;52.850;6.506;2024-01-07T04:29:42;7.68;;;1.70;;
55082;SDS011;40978;52.850;6.506;2024-01-07T04:32:08;0.30;;;0.25;;
55082;SDS011;40978;52.850;6.506;2024-01-07T04:34:34;0.60;;;0.60;;
55082;SDS011;40978;52.850;6.506;2024-01-07T04:36:59;0.90;;;0.77;;
55082;SDS011;40978;52.850;6.506;2024-01-07T04:39:25;5.57;;;2.08;;
55082;SDS011;40978;52.850;6.506;2024-01-07T04:41:51;0.65;;;0.65;;
55082;SDS011;40978;52.850;6.506;2024-01-07T04:44:17;1.38;;;0.80;;
55082;SDS011;40978;52.850;6.506;2024-01-07T04:46:43;0.38;;;0.38;;
55082;SDS011;40978;52.850;6.506;2024-01-07T04:49:09;3.10;;;0.70;;
55082;SDS011;40978;52.850;6.506;2024-01-07T04:51:34;1.48;;;0.73;;
55082;SDS011;40978;52.850;6.506;2024-01-07T04:54:01;1.10;;;0.88;;
55082;SDS011;40978;52.850;6.506;2024-01-07T04:56:27;1.80;;;1.05;;
55082;SDS011;40978;52.850;6.506;2024-01-07T04:58:53;0.47;;;0.47;;
55082;SDS011;40978;52.850;6.506;2024-01-07T05:01:19;1.98;;;0.77;;
55082;SDS011;40978;52.850;6.506;2024-01-07T05:03:44;1.10;;;0.70;;
55082;SDS011;40978;52.850;6.506;2024-01-07T05:06:10;0.10;;;0.10;;
55082;SDS011;40978;52.850;6.506;2024-01-07T05:08:36;1.98;;;0.90;;
55082;SDS011;40978;52.850;6.506;2024-01-07T05:11:03;2.35;;;1.17;;
55082;SDS011;40978;52.850;6.506;2024-01-07T05:13:29;2.55;;;1.35;;
55082;SDS011;40978;52.850;6.506;2024-01-07T05:15:55;3.58;;;1.08;;
55082;SDS011;40978;52.850;6.506;2024-01-07T05:18:21;1.80;;;0.82;;
55082;SDS011;40978;52.850;6.506;2024-01-07T05:20:50;1.02;;;0.47;;
55082;SDS011;40978;52.850;6.506;2024-01-07T05:23:16;1.33;;;1.05;;
55082;SDS011;40978;52.850;6.506;2024-01-07T05:25:43;1.13;;;0.93;;
55082;SDS011;40978;52.850;6.506;2024-01-07T05:28:09;1.08;;;0.77;;
55082;SDS011;40978;52.850;6.506;2024-01-07T05:30:35;0.90;;;0.50;;
55082;SDS011;40978;52.850;6.506;2024-01-07T05:33:01;0.28;;;0.28;;
55082;SDS011;40978;52.850;6.506;2024-01-07T05:35:27;0.00;;;0.00;;
55082;SDS011;40978;52.850;6.506;2024-01-07T05:37:52;5.38;;;0.40;;
55082;SDS011;40978;52.850;6.506;2024-01-07T05:40:18;0.45;;;0.45;;
55082;SDS011;40978;52.850;6.506;2024-01-07T05:42:44;1.20;;;0.88;;
55082;SDS011;40978;52.850;6.506;2024-01-07T05:45:09;0.65;;;0.55;;
55082;SDS011;40978;52.850;6.506;2024-01-07T05:47:35;0.10;;;0.10;;
55082;SDS011;40978;52.850;6.506;2024-01-07T05:50:01;0.25;;;0.20;;
55082;SDS011;40978;52.850;6.506;2024-01-07T05:52:27;0.43;;;0.22;;
55082;SDS011;40978;52.850;6.506;2024-01-07T05:54:53;1.27;;;0.98;;
55082;SDS011;40978;52.850;6.506;2024-01-07T05:57:19;0.57;;;0.55;;
55082;SDS011;40978;52.850;6.506;2024-01-07T05:59:44;0.65;;;0.43;;
55082;SDS011;40978;52.850;6.506;2024-01-07T06:02:10;1.00;;;0.85;;
55082;SDS011;40978;52.850;6.506;2024-01-07T06:04:37;0.95;;;0.85;;
55082;SDS011;40978;52.850;6.506;2024-01-07T06:07:03;0.63;;;0.38;;
55082;SDS011;40978;52.850;6.506;2024-01-07T06:09:30;1.23;;;0.55;;
55082;SDS011;40978;52.850;6.506;2024-01-07T06:11:55;0.70;;;0.60;;
55082;SDS011;40978;52.850;6.506;2024-01-07T06:14:22;0.25;;;0.17;;
55082;SDS011;40978;52.850;6.506;2024-01-07T06:16:48;0.20;;;0.17;;
55082;SDS011;40978;52.850;6.506;2024-01-07T06:19:15;1.58;;;0.77;;
55082;SDS011;40978;52.850;6.506;2024-01-07T06:21:42;0.73;;;0.22;;
55082;SDS011;40978;52.850;6.506;2024-01-07T06:24:08;0.47;;;0.20;;
55082;SDS011;40978;52.850;6.506;2024-01-07T06:26:33;0.85;;;0.35;;
55082;SDS011;40978;52.850;6.506;2024-01-07T06:29:00;0.63;;;0.63;;
55082;SDS011;40978;52.850;6.506;2024-01-07T06:31:26;1.83;;;0.55;;
55082;SDS011;40978;52.850;6.506;2024-01-07T06:33:52;1.50;;;0.73;;
55082;SDS011;40978;52.850;6.506;2024-01-07T06:36:18;0.55;;;0.43;;
55082;SDS011;40978;52.850;6.506;2024-01-07T06:38:43;0.30;;;0.22;;
55082;SDS011;40978;52.850;6.506;2024-01-07T06:41:10;1.20;;;0.28;;
55082;SDS011;40978;52.850;6.506;2024-01-07T06:43:38;3.10;;;0.75;;
55082;SDS011;40978;52.850;6.506;2024-01-07T06:46:03;0.38;;;0.30;;
55082;SDS011;40978;52.850;6.506;2024-01-07T06:48:29;1.35;;;0.40;;
55082;SDS011;40978;52.850;6.506;2024-01-07T06:50:55;0.73;;;0.38;;
55082;SDS011;40978;52.850;6.506;2024-01-07T06:53:21;0.13;;;0.13;;
55082;SDS011;40978;52.850;6.506;2024-01-07T06:55:47;0.15;;;0.13;;
55082;SDS011;40978;52.850;6.506;2024-01-07T06:58:12;0.73;;;0.38;;
55082;SDS011;40978;52.850;6.506;2024-01-07T07:00:38;0.10;;;0.10;;
55082;SDS011;40978;52.850;6.506;2024-01-07T07:03:04;0.65;;;0.00;;
55082;SDS011;40978;52.850;6.506;2024-01-07T07:05:30;0.05;;;0.05;;
55082;SDS011;40978;52.850;6.506;2024-01-07T07:07:57;0.40;;;0.20;;
55082;SDS011;40978;52.850;6.506;2024-01-07T07:10:23;0.10;;;0.10;;
55082;SDS011;40978;52.850;6.506;2024-01-07T07:12:48;0.77;;;0.43;;
55082;SDS011;40978;52.850;6.506;2024-01-07T07:15:16;1.45;;;0.50;;
55082;SDS011;40978;52.850;6.506;2024-01-07T07:17:42;0.30;;;0.22;;
55082;SDS011;40978;52.850;6.506;2024-01-07T07:20:08;0.15;;;0.15;;
55082;SDS011;40978;52.850;6.506;2024-01-07T07:22:34;1.95;;;0.35;;
55082;SDS011;40978;52.850;6.506;2024-01-07T07:25:00;0.30;;;0.20;;
55082;SDS011;40978;52.850;6.506;2024-01-07T07:27:25;0.63;;;0.20;;
55082;SDS011;40978;52.850;6.506;2024-01-07T07:29:51;0.38;;;0.30;;
55082;SDS011;40978;52.850;6.506;2024-01-07T07:32:17;0.10;;;0.10;;
55082;SDS011;40978;52.850;6.506;2024-01-07T07:34:43;0.55;;;0.25;;
55082;SDS011;40978;52.850;6.506;2024-01-07T07:37:09;0.55;;;0.55;;
55082;SDS011;40978;52.850;6.506;2024-01-07T07:39:35;0.45;;;0.22;;
55082;SDS011;40978;52.850;6.506;2024-01-07T07:42:01;0.10;;;0.10;;
55082;SDS011;40978;52.850;6.506;2024-01-07T07:44:26;1.05;;;0.40;;
55082;SDS011;40978;52.850;6.506;2024-01-07T07:46:52;0.38;;;0.22;;
55082;SDS011;40978;52.850;6.506;2024-01-07T07:49:18;1.20;;;0.47;;
55082;SDS011;40978;52.850;6.506;2024-01-07T07:51:44;0.80;;;0.43;;
55082;SDS011;40978;52.850;6.506;2024-01-07T07:54:09;0.20;;;0.20;;
55082;SDS011;40978;52.850;6.506;2024-01-07T07:56:35;1.48;;;0.52;;
55082;SDS011;40978;52.850;6.506;2024-01-07T07:59:01;1.05;;;0.10;;
55082;SDS011;40978;52.850;6.506;2024-01-07T08:01:28;0.63;;;0.35;;
55082;SDS011;40978;52.850;6.506;2024-01-07T08:03:54;0.10;;;0.05;;
55082;SDS011;40978;52.850;6.506;2024-01-07T08:06:19;0.85;;;0.38;;
55082;SDS011;40978;52.850;6.506;2024-01-07T08:08:45;0.30;;;0.10;;
55082;SDS011;40978;52.850;6.506;2024-01-07T08:11:11;0.10;;;0.10;;
55082;SDS011;40978;52.850;6.506;2024-01-07T08:13:37;0.00;;;0.00;;
55082;SDS011;40978;52.850;6.506;2024-01-07T08:16:03;0.17;;;0.17;;
55082;SDS011;40978;52.850;6.506;2024-01-07T08:18:30;1.55;;;0.60;;
55082;SDS011;40978;52.850;6.506;2024-01-07T08:20:56;0.55;;;0.40;;
55082;SDS011;40978;52.850;6.506;2024-01-07T08:23:23;0.75;;;0.40;;
55082;SDS011;40978;52.850;6.506;2024-01-07T08:25:49;4.32;;;1.02;;
55082;SDS011;40978;52.850;6.506;2024-01-07T08:28:16;0.00;;;0.00;;
55082;SDS011;40978;52.850;6.506;2024-01-07T08:30:43;1.58;;;0.22;;
55082;SDS011;40978;52.850;6.506;2024-01-07T08:33:09;0.35;;;0.28;;
55082;SDS011;40978;52.850;6.506;2024-01-07T08:35:36;0.05;;;0.00;;
55082;SDS011;40978;52.850;6.506;2024-01-07T08:38:02;0.20;;;0.20;;
55082;SDS011;40978;52.850;6.506;2024-01-07T08:40:28;0.30;;;0.30;;
55082;SDS011;40978;52.850;6.506;2024-01-07T08:42:54;4.28;;;0.38;;
55082;SDS011;40978;52.850;6.506;2024-01-07T08:45:20;0.00;;;0.00;;
55082;SDS011;40978;52.850;6.506;2024-01-07T08:47:46;4.60;;;0.40;;
55082;SDS011;40978;52.850;6.506;2024-01-07T08:50:12;2.75;;;0.32;;
55082;SDS011;40978;52.850;6.506;2024-01-07T08:52:38;0.20;;;0.20;;
55082;SDS011;40978;52.850;6.506;2024-01-07T08:55:04;0.50;;;0.30;;
55082;SDS011;40978;52.850;6.506;2024-01-07T08:57:34;0.70;;;0.52;;
55082;SDS011;40978;52.850;6.506;2024-01-07T09:00:00;0.75;;;0.32;;
55082;SDS011;40978;52.850;6.506;2024-01-07T09:02:25;0.20;;;0.20;;
55082;SDS011;40978;52.850;6.506;2024-01-07T09:04:51;0.38;;;0.30;;
55082;SDS011;40978;52.850;6.506;2024-01-07T09:07:17;0.32;;;0.30;;
55082;SDS011;40978;52.850;6.506;2024-01-07T09:09:44;1.38;;;0.55;;
55082;SDS011;40978;52.850;6.506;2024-01-07T09:12:10;0.30;;;0.22;;
55082;SDS011;40978;52.850;6.506;2024-01-07T09:14:39;0.50;;;0.22;;
55082;SDS011;40978;52.850;6.506;2024-01-07T09:17:05;0.52;;;0.45;;
55082;SDS011;40978;52.850;6.506;2024-01-07T09:19:31;0.10;;;0.10;;
55082;SDS011;40978;52.850;6.506;2024-01-07T09:21:56;0.17;;;0.17;;
55082;SDS011;40978;52.850;6.506;2024-01-07T09:24:25;1.23;;;0.80;;
55082;SDS011;40978;52.850;6.506;2024-01-07T09:26:50;0.90;;;0.20;;
55082;SDS011;40978;52.850;6.506;2024-01-07T09:29:17;0.00;;;0.00;;
55082;SDS011;40978;52.850;6.506;2024-01-07T09:31:43;0.63;;;0.20;;
55082;SDS011;40978;52.850;6.506;2024-01-07T09:34:08;0.22;;;0.20;;
55082;SDS011;40978;52.850;6.506;2024-01-07T09:36:34;0.00;;;0.00;;
55082;SDS011;40978;52.850;6.506;2024-01-07T09:39:01;0.28;;;0.28;;
55082;SDS011;40978;52.850;6.506;2024-01-07T09:41:30;0.10;;;0.10;;
55082;SDS011;40978;52.850;6.506;2024-01-07T09:43:55;0.85;;;0.30;;
55082;SDS011;40978;52.850;6.506;2024-01-07T09:46:24;0.35;;;0.20;;
55082;SDS011;40978;52.850;6.506;2024-01-07T09:48:50;0.77;;;0.50;;
55082;SDS011;40978;52.850;6.506;2024-01-07T09:51:16;0.45;;;0.40;;
55082;SDS011;40978;52.850;6.506;2024-01-07T09:53:46;0.40;;;0.17;;
55082;SDS011;40978;52.850;6.506;2024-01-07T09:56:25;0.28;;;0.20;;
55082;SDS011;40978;52.850;6.506;2024-01-07T09:58:54;0.00;;;0.00;;
55082;SDS011;40978;52.850;6.506;2024-01-07T10:01:20;0.60;;;0.30;;
55082;SDS011;40978;52.850;6.506;2024-01-07T10:03:46;0.08;;;0.08;;
55082;SDS011;40978;52.850;6.506;2024-01-07T10:06:12;0.30;;;0.20;;
55082;SDS011;40978;52.850;6.506;2024-01-07T10:08:38;0.28;;;0.22;;
55082;SDS011;40978;52.850;6.506;2024-01-07T10:11:04;0.15;;;0.10;;
55082;SDS011;40978;52.850;6.506;2024-01-07T10:13:30;0.10;;;0.10;;
55082;SDS011;40978;52.850;6.506;2024-01-07T10:15:57;0.10;;;0.00;;
55082;SDS011;40978;52.850;6.506;2024-01-07T10:18:23;0.00;;;0.00;;
55082;SDS011;40978;52.850;6.506;2024-01-07T10:20:50;0.52;;;0.32;;
55082;SDS011;40978;52.850;6.506;2024-01-07T10:23:19;0.45;;;0.20;;
55082;SDS011;40978;52.850;6.506;2024-01-07T10:25:45;0.10;;;0.10;;
55082;SDS011;40978;52.850;6.506;2024-01-07T10:28:10;0.15;;;0.13;;
55082;SDS011;40978;52.850;6.506;2024-01-07T10:30:39;0.00;;;0.00;;
55082;SDS011;40978;52.850;6.506;2024-01-07T10:33:06;0.10;;;0.10;;
55082;SDS011;40978;52.850;6.506;2024-01-07T10:35:33;0.10;;;0.10;;
55082;SDS011;40978;52.850;6.506;2024-01-07T10:38:00;6.30;;;0.43;;
55082;SDS011;40978;52.850;6.506;2024-01-07T10:40:27;0.05;;;0.03;;
55082;SDS011;40978;52.850;6.506;2024-01-07T10:42:54;0.30;;;0.20;;
55082;SDS011;40978;52.850;6.506;2024-01-07T10:45:21;0.55;;;0.30;;
55082;SDS011;40978;52.850;6.506;2024-01-07T10:47:52;0.70;;;0.17;;
55082;SDS011;40978;52.850;6.506;2024-01-07T10:50:20;0.00;;;0.00;;
55082;SDS011;40978;52.850;6.506;2024-01-07T10:52:50;0.40;;;0.30;;
55082;SDS011;40978;52.850;6.506;2024-01-07T10:55:22;0.15;;;0.15;;
55082;SDS011;40978;52.850;6.506;2024-01-07T10:57:51;1.17;;;0.52;;
55082;SDS011;40978;52.850;6.506;2024-01-07T11:00:19;0.10;;;0.10;;
55082;SDS011;40978;52.850;6.506;2024-01-07T11:08:06;0.38;;;0.17;;
55082;SDS011;40978;52.850;6.506;2024-01-07T11:10:39;0.25;;;0.10;;
55082;SDS011;40978;52.850;6.506;2024-01-07T11:13:11;0.82;;;0.65;;
55082;SDS011;40978;52.850;6.506;2024-01-07T11:16:04;0.03;;;0.03;;
55082;SDS011;40978;52.850;6.506;2024-01-07T11:18:37;0.10;;;0.10;;
55082;SDS011;40978;52.850;6.506;2024-01-07T11:21:22;0.47;;;0.20;;
55082;SDS011;40978;52.850;6.506;2024-01-07T11:23:49;0.25;;;0.20;;
55082;SDS011;40978;52.850;6.506;2024-01-07T11:26:18;0.10;;;0.10;;
55082;SDS011;40978;52.850;6.506;2024-01-07T11:28:52;0.00;;;0.00;;
55082;SDS011;40978;52.850;6.506;2024-01-07T11:31:21;0.80;;;0.30;;
55082;SDS011;40978;52.850;6.506;2024-01-07T11:34:06;1.55;;;0.52;;
55082;SDS011;40978;52.850;6.506;2024-01-07T11:36:36;0.30;;;0.20;;
55082;SDS011;40978;52.850;6.506;2024-01-07T11:39:02;0.22;;;0.22;;
55082;SDS011;40978;52.850;6.506;2024-01-07T11:41:31;0.75;;;0.20;;
55082;SDS011;40978;52.850;6.506;2024-01-07T11:43:59;0.40;;;0.17;;
55082;SDS011;40978;52.850;6.506;2024-01-07T11:46:31;0.00;;;0.00;;
55082;SDS011;40978;52.850;6.506;2024-01-07T11:48:57;0.00;;;0.00;;
55082;SDS011;40978;52.850;6.506;2024-01-07T11:51:31;0.30;;;0.03;;
55082;SDS011;40978;52.850;6.506;2024-01-07T11:53:57;0.35;;;0.30;;
55082;SDS011;40978;52.850;6.506;2024-01-07T11:56:24;3.30;;;0.40;;
55082;SDS011;40978;52.850;6.506;2024-01-07T11:58:51;0.08;;;0.05;;
55082;SDS011;40978;52.850;6.506;2024-01-07T12:01:20;0.20;;;0.13;;
55082;SDS011;40978;52.850;6.506;2024-01-07T12:03:46;1.30;;;0.30;;
55082;SDS011;40978;52.850;6.506;2024-01-07T12:06:12;0.40;;;0.20;;
55082;SDS011;40978;52.850;6.506;2024-01-07T12:08:48;0.10;;;0.10;;
55082;SDS011;40978;52.850;6.506;2024-01-07T12:11:14;0.20;;;0.17;;
55082;SDS011;40978;52.850;6.506;2024-01-07T12:13:41;0.60;;;0.35;;
55082;SDS011;40978;52.850;6.506;2024-01-07T12:16:08;0.85;;;0.52;;
55082;SDS011;40978;52.850;6.506;2024-01-07T12:18:39;4.47;;;0.28;;
55082;SDS011;40978;52.850;6.506;2024-01-07T12:21:04;0.20;;;0.20;;
55082;SDS011;40978;52.850;6.506;2024-01-07T12:23:34;0.00;;;0.00;;
55082;SDS011;40978;52.850;6.506;2024-01-07T12:26:07;0.15;;;0.15;;
55082;SDS011;40978;52.850;6.506;2024-01-07T12:28:34;1.48;;;0.13;;
55082;SDS011;40978;52.850;6.506;2024-01-07T12:30:59;2.30;;;0.40;;
55082;SDS011;40978;52.850;6.506;2024-01-07T12:33:26;0.43;;;0.20;;
55082;SDS011;40978;52.850;6.506;2024-01-07T12:35:55;3.50;;;0.43;;
55082;SDS011;40978;52.850;6.506;2024-01-07T12:38:24;0.82;;;0.60;;
55082;SDS011;40978;52.850;6.506;2024-01-07T12:40:50;0.00;;;0.00;;
55082;SDS011;40978;52.850;6.506;2024-01-07T12:43:17;0.25;;;0.20;;
55082;SDS011;40978;52.850;6.506;2024-01-07T12:45:42;3.42;;;0.90;;
55082;SDS011;40978;52.850;6.506;2024-01-07T12:48:09;0.30;;;0.20;;
55082;SDS011;40978;52.850;6.506;2024-01-07T12:50:35;0.38;;;0.30;;
55082;SDS011;40978;52.850;6.506;2024-01-07T12:53:01;0.00;;;0.00;;
55082;SDS011;40978;52.850;6.506;2024-01-07T12:55:26;0.10;;;0.10;;
55082;SDS011;40978;52.850;6.506;2024-01-07T12:57:52;0.70;;;0.40;;
55082;SDS011;40978;52.850;6.506;2024-01-07T13:00:19;0.17;;;0.10;;
55082;SDS011;40978;52.850;6.506;2024-01-07T13:02:45;0.95;;;0.55;;
55082;SDS011;40978;52.850;6.506;2024-01-07T13:05:11;0.52;;;0.40;;
55082;SDS011;40978;52.850;6.506;2024-01-07T13:07:38;0.43;;;0.30;;
55082;SDS011;40978;52.850;6.506;2024-01-07T13:10:04;1.08;;;0.57;;
55082;SDS011;40978;52.850;6.506;2024-01-07T13:12:31;1.55;;;0.30;;
55082;SDS011;40978;52.850;6.506;2024-01-07T13:14:56;0.47;;;0.30;;
55082;SDS011;40978;52.850;6.506;2024-01-07T13:17:22;0.80;;;0.20;;
55082;SDS011;40978;52.850;6.506;2024-01-07T13:19:48;0.40;;;0.40;;
55082;SDS011;40978;52.850;6.506;2024-01-07T13:22:14;0.68;;;0.35;;
55082;SDS011;40978;52.850;6.506;2024-01-07T13:24:39;1.20;;;1.00;;
55082;SDS011;40978;52.850;6.506;2024-01-07T13:27:06;1.33;;;0.60;;
55082;SDS011;40978;52.850;6.506;2024-01-07T13:29:33;0.20;;;0.20;;
55082;SDS011;40978;52.850;6.506;2024-01-07T13:32:00;2.60;;;0.32;;
55082;SDS011;40978;52.850;6.506;2024-01-07T13:34:25;0.15;;;0.10;;
55082;SDS011;40978;52.850;6.506;2024-01-07T13:36:52;0.88;;;0.68;;
55082;SDS011;40978;52.850;6.506;2024-01-07T13:39:19;0.63;;;0.63;;
55082;SDS011;40978;52.850;6.506;2024-01-07T13:41:46;0.82;;;0.35;;
55082;SDS011;40978;52.850;6.506;2024-01-07T13:44:11;1.55;;;0.88;;
55082;SDS011;40978;52.850;6.506;2024-01-07T13:46:45;0.98;;;0.40;;
55082;SDS011;40978;52.850;6.506;2024-01-07T13:49:15;0.50;;;0.45;;
55082;SDS011;40978;52.850;6.506;2024-01-07T13:51:41;1.45;;;0.52;;
55082;SDS011;40978;52.850;6.506;2024-01-07T13:54:07;0.47;;;0.28;;
55082;SDS011;40978;52.850;6.506;2024-01-07T13:56:35;1.90;;;1.05;;
55082;SDS011;40978;52.850;6.506;2024-01-07T13:59:02;0.25;;;0.25;;
55082;SDS011;40978;52.850;6.506;2024-01-07T14:01:28;0.75;;;0.50;;
55082;SDS011;40978;52.850;6.506;2024-01-07T14:03:55;0.68;;;0.52;;
55082;SDS011;40978;52.850;6.506;2024-01-07T14:06:21;0.70;;;0.43;;
55082;SDS011;40978;52.850;6.506;2024-01-07T14:08:46;0.22;;;0.20;;
55082;SDS011;40978;52.850;6.506;2024-01-07T14:11:12;0.52;;;0.28;;
55082;SDS011;40978;52.850;6.506;2024-01-07T14:13:38;2.55;;;0.50;;
55082;SDS011;40978;52.850;6.506;2024-01-07T14:16:04;0.10;;;0.10;;
55082;SDS011;40978;52.850;6.506;2024-01-07T14:18:30;0.00;;;0.00;;
55082;SDS011;40978;52.850;6.506;2024-01-07T14:20:55;1.17;;;0.63;;
55082;SDS011;40978;52.850;6.506;2024-01-07T14:23:21;0.38;;;0.20;;
55082;SDS011;40978;52.850;6.506;2024-01-07T14:25:47;2.97;;;0.40;;
55082;SDS011;40978;52.850;6.506;2024-01-07T14:28:13;1.10;;;0.50;;
55082;SDS011;40978;52.850;6.506;2024-01-07T14:30:38;1.23;;;0.60;;
55082;SDS011;40978;52.850;6.506;2024-01-07T14:33:04;0.85;;;0.40;;
55082;SDS011;40978;52.850;6.506;2024-01-07T14:35:30;3.30;;;0.85;;
55082;SDS011;40978;52.850;6.506;2024-01-07T14:37:59;1.65;;;1.00;;
55082;SDS011;40978;52.850;6.506;2024-01-07T14:40:25;0.90;;;0.52;;
55082;SDS011;40978;52.850;6.506;2024-01-07T14:42:51;1.45;;;0.68;;
55082;SDS011;40978;52.850;6.506;2024-01-07T14:45:23;1.50;;;0.75;;
55082;SDS011;40978;52.850;6.506;2024-01-07T14:47:50;0.75;;;0.50;;
55082;SDS011;40978;52.850;6.506;2024-01-07T14:50:16;0.40;;;0.20;;